createdAt,value
2019-05-28T00:00:09.016Z,926.9
2019-05-28T00:01:10.435Z,926.9
2019-05-28T00:02:11.850Z,926.9
2019-05-28T00:03:13.287Z,926.9
2019-05-28T00:04:14.703Z,926.9
2019-05-28T00:05:16.139Z,926.9
2019-05-28T00:06:17.559Z,926.8
2019-05-28T00:07:18.973Z,926.9
2019-05-28T00:08:20.119Z,926.8
2019-05-28T00:09:20.659Z,926.9
2019-05-28T00:10:22.147Z,926.9
2019-05-28T00:11:23.568Z,926.8
2019-05-28T00:12:24.984Z,926.9
2019-05-28T00:13:26.409Z,926.6
2019-05-28T00:14:27.823Z,926.8
2019-05-28T00:15:28.973Z,926.7
2019-05-28T00:16:30.399Z,926.7
2019-05-28T00:17:31.535Z,926.8
2019-05-28T00:18:32.669Z,926.8
2019-05-28T00:19:33.198Z,926.7
2019-05-28T00:20:34.335Z,926.7
2019-05-28T00:21:35.765Z,926.7
2019-05-28T00:22:36.897Z,926.7
2019-05-28T00:23:38.033Z,926.7
2019-05-28T00:24:39.175Z,926.7
2019-05-28T00:25:40.330Z,926.6
2019-05-28T00:26:41.733Z,926.6
2019-05-28T00:27:43.153Z,926.6
2019-05-28T00:28:44.571Z,926.6
2019-05-28T00:29:45.388Z,926.6
2019-05-28T00:30:46.809Z,926.2
2019-05-28T00:31:48.227Z,926.6
2019-05-28T00:32:49.370Z,926.4
2019-05-28T00:33:50.505Z,926.4
2019-05-28T00:34:51.718Z,926.4
2019-05-28T00:35:53.113Z,926.6
2019-05-28T00:36:54.531Z,926.5
2019-05-28T00:37:55.955Z,926.5
2019-05-28T00:38:57.089Z,926.3
2019-05-28T00:39:57.934Z,926.5
2019-05-28T00:40:59.059Z,924.8
2019-05-28T00:42:00.202Z,925.4
2019-05-28T00:43:01.626Z,926.5
2019-05-28T00:44:03.041Z,926.5
2019-05-28T00:45:04.483Z,926.4
2019-05-28T00:46:05.889Z,926.5
2019-05-28T00:47:07.311Z,926.4
2019-05-28T00:48:08.728Z,926.3
2019-05-28T00:49:09.869Z,926.5
2019-05-28T00:50:10.400Z,925.6
2019-05-28T00:51:11.815Z,926.3
2019-05-28T00:52:12.955Z,926.3
2019-05-28T00:53:14.087Z,926.5
2019-05-28T00:54:15.231Z,924.8
2019-05-28T00:55:16.378Z,926.5
2019-05-28T00:56:17.795Z,926.3
2019-05-28T00:57:18.931Z,926.4
2019-05-28T00:58:20.069Z,926.4
2019-05-28T00:59:21.211Z,926.2
2019-05-28T01:00:36.095Z,926.5
2019-05-28T01:01:22.563Z,926.5
2019-05-28T01:02:24.024Z,926.5
2019-05-28T01:03:25.142Z,926.5
2019-05-28T01:04:26.282Z,926.5
2019-05-28T01:05:27.423Z,926.4
2019-05-28T01:06:28.846Z,926.4
2019-05-28T01:07:29.977Z,926.5
2019-05-28T01:08:31.120Z,926.4
2019-05-28T01:09:32.537Z,926
2019-05-28T01:10:33.367Z,926.3
2019-05-28T01:11:34.774Z,926.5
2019-05-28T01:12:36.195Z,926.5
2019-05-28T01:13:37.609Z,926.4
2019-05-28T01:14:39.029Z,926.5
2019-05-28T01:15:40.183Z,926.2
2019-05-28T01:16:41.604Z,926.3
2019-05-28T01:17:42.747Z,926.3
2019-05-28T01:18:43.878Z,926.3
2019-05-28T01:19:45.016Z,926.2
2019-05-28T01:20:45.850Z,926.1
2019-05-28T01:21:46.982Z,926.2
2019-05-28T01:22:48.122Z,926.3
2019-05-28T01:23:49.255Z,926.3
2019-05-28T01:24:50.680Z,926.3
2019-05-28T01:25:51.830Z,926.2
2019-05-28T01:26:53.262Z,926.2
2019-05-28T01:27:54.670Z,926.1
2019-05-28T01:28:56.082Z,926.2
2019-05-28T01:29:57.497Z,926.2
2019-05-28T01:31:06.378Z,926.2
2019-05-28T01:31:59.455Z,926.2
2019-05-28T01:33:00.578Z,926.2
2019-05-28T01:34:01.722Z,926.2
2019-05-28T01:35:02.850Z,926.2
2019-05-28T01:36:04.007Z,926.2
2019-05-28T01:37:05.427Z,926.2
2019-05-28T01:38:08.406Z,926.1
2019-05-28T01:39:07.991Z,926.2
2019-05-28T01:40:09.404Z,926.1
2019-05-28T01:41:10.212Z,926
2019-05-28T01:42:11.632Z,926.1
2019-05-28T01:43:13.063Z,926.1
2019-05-28T01:44:14.184Z,926
2019-05-28T01:45:15.364Z,926
2019-05-28T01:46:16.814Z,926
2019-05-28T01:47:18.230Z,925.8
2019-05-28T01:48:19.694Z,925.8
2019-05-28T01:49:21.159Z,926
2019-05-28T01:50:22.564Z,925.8
2019-05-28T01:51:23.398Z,925.9
2019-05-28T01:52:24.841Z,925.9
2019-05-28T01:53:26.247Z,926
2019-05-28T01:54:27.685Z,925.9
2019-05-28T01:55:29.103Z,925.9
2019-05-28T01:56:30.278Z,926
2019-05-28T01:57:31.695Z,925.9
2019-05-28T01:58:32.826Z,926
2019-05-28T01:59:34.246Z,926
2019-05-28T02:00:35.390Z,926
2019-05-28T02:01:36.628Z,926
2019-05-28T02:02:37.771Z,925.9
2019-05-28T02:03:38.901Z,926
2019-05-28T02:04:40.034Z,925.9
2019-05-28T02:05:41.179Z,925.9
2019-05-28T02:06:42.345Z,925.9
2019-05-28T02:07:43.760Z,925.9
2019-05-28T02:08:45.184Z,925.9
2019-05-28T02:09:46.315Z,925.9
2019-05-28T02:10:47.459Z,925.9
2019-05-28T02:11:48.288Z,925.8
2019-05-28T02:12:49.418Z,925.9
2019-05-28T02:13:50.552Z,925.8
2019-05-28T02:14:51.686Z,925.8
2019-05-28T02:15:53.112Z,925.8
2019-05-28T02:16:54.564Z,925.9
2019-05-28T02:17:55.701Z,925.9
2019-05-28T02:18:56.844Z,925.7
2019-05-28T02:19:57.980Z,925.8
2019-05-28T02:20:59.403Z,925.9
2019-05-28T02:22:00.232Z,925.8
2019-05-28T02:23:01.367Z,925.9
2019-05-28T02:24:02.516Z,925.9
2019-05-28T02:25:03.646Z,925.8
2019-05-28T02:26:04.781Z,925.7
2019-05-28T02:27:06.226Z,925.7
2019-05-28T02:28:07.640Z,925.8
2019-05-28T02:29:08.790Z,925.9
2019-05-28T02:30:10.063Z,925.7
2019-05-28T02:31:24.911Z,925.9
2019-05-28T02:32:12.582Z,925.8
2019-05-28T02:33:14.008Z,925.9
2019-05-28T02:34:15.420Z,925.9
2019-05-28T02:35:16.843Z,925.3
2019-05-28T02:36:18.254Z,925.9
2019-05-28T02:37:19.416Z,925.8
2019-05-28T02:38:20.901Z,925.8
2019-05-28T02:39:22.315Z,925.8
2019-05-28T02:40:23.716Z,925.7
2019-05-28T02:41:24.860Z,925.7
2019-05-28T02:42:25.396Z,925.7
2019-05-28T02:43:26.818Z,925.6
2019-05-28T02:44:27.956Z,925.7
2019-05-28T02:45:29.088Z,925.8
2019-05-28T02:46:30.234Z,924.2
2019-05-28T02:47:31.670Z,925.6
2019-05-28T02:48:33.116Z,925.8
2019-05-28T02:49:34.529Z,925.7
2019-05-28T02:50:35.944Z,925.8
2019-05-28T02:51:37.368Z,925.8
2019-05-28T02:52:38.193Z,925.8
2019-05-28T02:53:39.604Z,925.7
2019-05-28T02:54:41.027Z,925.8
2019-05-28T02:55:42.167Z,924.2
2019-05-28T02:56:43.298Z,925
2019-05-28T02:57:44.462Z,925.8
2019-05-28T02:58:45.877Z,925.8
2019-05-28T02:59:47.014Z,925.8
2019-05-28T03:00:48.440Z,925.8
2019-05-28T03:01:49.584Z,924.8
2019-05-28T03:02:50.127Z,925.8
2019-05-28T03:03:51.542Z,925.9
2019-05-28T03:04:52.680Z,925.8
2019-05-28T03:05:53.822Z,925.8
2019-05-28T03:06:55.257Z,925.8
2019-05-28T03:07:56.423Z,925.8
2019-05-28T03:08:57.847Z,925.9
2019-05-28T03:09:59.265Z,925.9
2019-05-28T03:11:03.381Z,925.7
2019-05-28T03:12:01.227Z,925.7
2019-05-28T03:13:01.769Z,925.8
2019-05-28T03:14:03.191Z,925.8
2019-05-28T03:15:04.323Z,925.8
2019-05-28T03:16:05.466Z,925.7
2019-05-28T03:17:06.601Z,925.8
2019-05-28T03:18:07.749Z,925.8
2019-05-28T03:19:09.179Z,925.8
2019-05-28T03:20:10.306Z,925.9
2019-05-28T03:21:11.449Z,925.9
2019-05-28T03:22:12.869Z,925.8
2019-05-28T03:23:13.694Z,925.9
2019-05-28T03:24:15.110Z,925.7
2019-05-28T03:25:16.562Z,925.7
2019-05-28T03:26:17.977Z,925.8
2019-05-28T03:27:19.393Z,925.8
2019-05-28T03:28:20.857Z,925.8
2019-05-28T03:29:22.276Z,925.8
2019-05-28T03:30:23.694Z,925.8
2019-05-28T03:31:24.833Z,925.8
2019-05-28T03:32:25.968Z,925.8
2019-05-28T03:33:26.514Z,925.8
2019-05-28T03:34:27.937Z,925.8
2019-05-28T03:35:29.343Z,925.8
2019-05-28T03:36:30.774Z,925.8
2019-05-28T03:37:32.187Z,925.8
2019-05-28T03:38:33.641Z,925.7
2019-05-28T03:39:35.059Z,925.8
2019-05-28T03:40:36.493Z,925.8
2019-05-28T03:41:37.615Z,925.7
2019-05-28T03:42:41.545Z,925.6
2019-05-28T03:43:39.403Z,925.6
2019-05-28T03:44:40.877Z,925.8
2019-05-28T03:45:42.285Z,925.8
2019-05-28T03:46:43.695Z,925.8
2019-05-28T03:47:45.115Z,925.7
2019-05-28T03:48:46.271Z,925.8
2019-05-28T03:49:47.692Z,925.7
2019-05-28T03:50:48.823Z,925.7
2019-05-28T03:51:49.965Z,925.8
2019-05-28T03:52:51.118Z,925.7
2019-05-28T03:53:51.965Z,925.6
2019-05-28T03:54:53.389Z,925.7
2019-05-28T03:55:54.797Z,925.7
2019-05-28T03:56:56.222Z,925.6
2019-05-28T03:57:57.652Z,925.5
2019-05-28T03:58:59.082Z,925.4
2019-05-28T04:00:03.471Z,925.6
2019-05-28T04:01:01.863Z,925.4
2019-05-28T04:02:03.321Z,925.5
2019-05-28T04:03:04.755Z,925.3
2019-05-28T04:04:05.583Z,925.6
2019-05-28T04:05:07.053Z,925.6
2019-05-28T04:06:08.201Z,925.6
2019-05-28T04:07:09.336Z,925.6
2019-05-28T04:08:10.552Z,925.6
2019-05-28T04:09:12.050Z,925.5
2019-05-28T04:10:13.469Z,925.6
2019-05-28T04:11:14.886Z,925.5
2019-05-28T04:12:16.013Z,925.7
2019-05-28T04:13:17.156Z,925.6
2019-05-28T04:14:18.031Z,925.5
2019-05-28T04:15:19.469Z,925.6
2019-05-28T04:16:20.885Z,925.5
2019-05-28T04:17:22.310Z,925.5
2019-05-28T04:18:23.440Z,925.6
2019-05-28T04:19:24.588Z,925.5
2019-05-28T04:20:26.015Z,925.6
2019-05-28T04:21:27.148Z,925.5
2019-05-28T04:22:28.282Z,925.5
2019-05-28T04:23:29.429Z,925.5
2019-05-28T04:24:29.957Z,925.6
2019-05-28T04:25:31.375Z,925.5
2019-05-28T04:26:32.517Z,925.5
2019-05-28T04:27:33.747Z,925.5
2019-05-28T04:28:35.189Z,925.5
2019-05-28T04:29:36.363Z,925.4
2019-05-28T04:30:37.858Z,925.4
2019-05-28T04:31:38.995Z,925.4
2019-05-28T04:32:46.778Z,925.4
2019-05-28T04:33:40.851Z,925.4
2019-05-28T04:34:41.401Z,925.3
2019-05-28T04:35:42.827Z,925.4
2019-05-28T04:36:43.963Z,925.3
2019-05-28T04:37:45.103Z,925.3
2019-05-28T04:38:49.454Z,925.3
2019-05-28T04:39:47.854Z,925.4
2019-05-28T04:40:49.268Z,925.4
2019-05-28T04:41:53.772Z,925.3
2019-05-28T04:42:52.156Z,925.4
2019-05-28T04:43:56.502Z,925.3
2019-05-28T04:44:54.313Z,925.4
2019-05-28T04:45:55.732Z,925.4
2019-05-28T04:47:08.207Z,925.3
2019-05-28T04:47:57.866Z,925.2
2019-05-28T04:48:59.008Z,925.2
2019-05-28T04:50:00.197Z,925.4
2019-05-28T04:51:01.606Z,925.4
2019-05-28T04:52:03.025Z,925.3
2019-05-28T04:53:04.163Z,925.3
2019-05-28T04:54:05.584Z,925.2
2019-05-28T04:55:06.140Z,925.1
2019-05-28T04:56:07.555Z,925.2
2019-05-28T04:57:08.717Z,923.6
2019-05-28T04:58:10.143Z,925.1
2019-05-28T04:59:11.276Z,925.3
2019-05-28T05:00:12.726Z,925.3
2019-05-28T05:01:14.139Z,925.3
2019-05-28T05:02:15.270Z,925.2
2019-05-28T05:03:16.406Z,925.2
2019-05-28T05:04:17.550Z,925.3
2019-05-28T05:05:18.097Z,923.6
2019-05-28T05:06:19.552Z,925.3
2019-05-28T05:07:20.954Z,924.6
2019-05-28T05:08:22.094Z,925.3
2019-05-28T05:09:23.221Z,925.3
2019-05-28T05:10:24.389Z,925.3
2019-05-28T05:11:25.809Z,925.4
2019-05-28T05:12:27.231Z,925.3
2019-05-28T05:13:28.407Z,925.3
2019-05-28T05:14:29.816Z,925.3
2019-05-28T05:15:30.263Z,925.3
2019-05-28T05:16:31.695Z,925.3
2019-05-28T05:17:33.105Z,925.3
2019-05-28T05:18:34.240Z,925.3
2019-05-28T05:19:35.367Z,925.3
2019-05-28T05:20:36.555Z,925.3
2019-05-28T05:21:41.204Z,925.2
2019-05-28T05:22:38.577Z,925.4
2019-05-28T05:23:39.715Z,925.3
2019-05-28T05:24:40.852Z,925.3
2019-05-28T05:25:41.680Z,925.4
2019-05-28T05:26:43.096Z,925.3
2019-05-28T05:27:44.520Z,925.2
2019-05-28T05:28:45.923Z,925.4
2019-05-28T05:29:47.341Z,925.4
2019-05-28T05:30:48.790Z,925.3
2019-05-28T05:31:50.207Z,925.3
2019-05-28T05:32:51.346Z,925.4
2019-05-28T05:33:52.486Z,925.4
2019-05-28T05:34:53.620Z,925.3
2019-05-28T05:35:54.518Z,925.3
2019-05-28T05:36:55.936Z,925.3
2019-05-28T05:37:57.374Z,925.4
2019-05-28T05:38:58.802Z,925.4
2019-05-28T05:40:00.222Z,925.4
2019-05-28T05:41:01.663Z,925.4
2019-05-28T05:42:03.078Z,925.5
2019-05-28T05:43:04.497Z,925.4
2019-05-28T05:44:05.919Z,925.2
2019-05-28T05:45:07.862Z,925.5
2019-05-28T05:46:07.455Z,925.4
2019-05-28T05:47:08.871Z,925.4
2019-05-28T05:48:10.003Z,925.4
2019-05-28T05:49:11.169Z,925.4
2019-05-28T05:50:12.608Z,925.4
2019-05-28T05:51:14.056Z,925.4
2019-05-28T05:52:15.477Z,925.5
2019-05-28T05:53:16.895Z,925.4
2019-05-28T05:54:18.026Z,925.4
2019-05-28T05:55:19.161Z,925.4
2019-05-28T05:56:19.722Z,925.4
2019-05-28T05:57:21.143Z,925.5
2019-05-28T05:58:22.554Z,925.5
2019-05-28T05:59:23.982Z,925.5
2019-05-28T06:00:25.395Z,925.4
2019-05-28T06:01:26.850Z,925.2
2019-05-28T06:02:28.260Z,925.3
2019-05-28T06:03:47.386Z,925.5
2019-05-28T06:04:30.630Z,925.3
2019-05-28T06:05:32.046Z,925.5
2019-05-28T06:06:32.603Z,925.5
2019-05-28T06:07:34.049Z,925.5
2019-05-28T06:08:37.146Z,925.3
2019-05-28T06:09:36.727Z,925.5
2019-05-28T06:10:38.161Z,925.4
2019-05-28T06:11:39.600Z,925.5
2019-05-28T06:12:41.022Z,925.6
2019-05-28T06:13:42.446Z,925.5
2019-05-28T06:14:43.610Z,925.6
2019-05-28T06:15:45.030Z,925.6
2019-05-28T06:16:45.556Z,925.5
2019-05-28T06:17:46.974Z,925.6
2019-05-28T06:18:48.117Z,925.6
2019-05-28T06:19:49.246Z,925.6
2019-05-28T06:20:50.406Z,925.5
2019-05-28T06:21:51.836Z,925.4
2019-05-28T06:22:53.256Z,925.6
2019-05-28T06:23:54.668Z,925.6
2019-05-28T06:24:56.122Z,925.6
2019-05-28T06:25:57.578Z,925.6
2019-05-28T06:26:58.394Z,925.6
2019-05-28T06:27:59.816Z,925.6
2019-05-28T06:29:01.262Z,925.6
2019-05-28T06:30:02.695Z,925.6
2019-05-28T06:31:04.110Z,924.3
2019-05-28T06:32:05.543Z,925.6
2019-05-28T06:33:06.956Z,925.6
2019-05-28T06:34:08.096Z,925.6
2019-05-28T06:35:09.235Z,925.5
2019-05-28T06:36:10.372Z,925.5
2019-05-28T06:37:10.901Z,925.5
2019-05-28T06:38:12.327Z,925.6
2019-05-28T06:39:13.784Z,925.4
2019-05-28T06:40:15.206Z,925.5
2019-05-28T06:41:16.351Z,925.4
2019-05-28T06:42:17.496Z,925.5
2019-05-28T06:43:18.954Z,925.5
2019-05-28T06:44:20.348Z,925.6
2019-05-28T06:45:21.489Z,925.5
2019-05-28T06:46:22.911Z,925.7
2019-05-28T06:47:23.724Z,925.6
2019-05-28T06:48:25.134Z,925.5
2019-05-28T06:49:26.546Z,925.6
2019-05-28T06:50:27.682Z,925.6
2019-05-28T06:51:29.105Z,925.5
2019-05-28T06:52:30.550Z,925.5
2019-05-28T06:53:31.964Z,925.6
2019-05-28T06:54:33.378Z,925.6
2019-05-28T06:55:34.794Z,925.6
2019-05-28T06:56:39.154Z,925.5
2019-05-28T06:57:36.500Z,925.6
2019-05-28T06:58:45.779Z,925.6
2019-05-28T06:59:39.138Z,925.6
2019-05-28T07:00:40.551Z,924
2019-05-28T07:01:41.716Z,925.5
2019-05-28T07:02:43.138Z,925.6
2019-05-28T07:03:44.556Z,925.4
2019-05-28T07:04:45.982Z,925.6
2019-05-28T07:06:03.312Z,925.5
2019-05-28T07:06:48.706Z,925.5
2019-05-28T07:07:49.542Z,925.6
2019-05-28T07:08:50.960Z,925.6
2019-05-28T07:09:52.099Z,925.6
2019-05-28T07:10:57.445Z,925.5
2019-05-28T07:11:54.210Z,925.6
2019-05-28T07:12:55.694Z,925.5
2019-05-28T07:13:56.830Z,925.6
2019-05-28T07:14:57.973Z,925.6
2019-05-28T07:15:59.111Z,925.6
2019-05-28T07:17:00.262Z,925.7
2019-05-28T07:18:05.070Z,925.5
2019-05-28T07:19:02.473Z,925.4
2019-05-28T07:20:03.907Z,925.5
2019-05-28T07:21:05.328Z,925.5
2019-05-28T07:22:06.780Z,925.6
2019-05-28T07:23:08.192Z,925.5
2019-05-28T07:24:10.585Z,925.6
2019-05-28T07:25:10.992Z,925.6
2019-05-28T07:26:12.123Z,925.5
2019-05-28T07:27:13.567Z,925.5
2019-05-28T07:28:17.410Z,925.6
2019-05-28T07:29:15.802Z,925.5
2019-05-28T07:30:16.934Z,925.5
2019-05-28T07:31:18.370Z,925.5
2019-05-28T07:32:19.522Z,925.5
2019-05-28T07:33:20.667Z,925.6
2019-05-28T07:34:36.872Z,925.5
2019-05-28T07:35:23.150Z,925.6
2019-05-28T07:36:24.574Z,925.5
2019-05-28T07:37:26.018Z,925.5
2019-05-28T07:38:26.832Z,925.5
2019-05-28T07:39:27.969Z,925.5
2019-05-28T07:40:31.885Z,925.6
2019-05-28T07:41:30.660Z,925.5
2019-05-28T07:42:33.096Z,925.6
2019-05-28T07:43:32.371Z,925.6
2019-05-28T07:44:33.509Z,925.6
2019-05-28T07:45:34.646Z,925.6
2019-05-28T07:46:35.782Z,925.5
2019-05-28T07:47:36.963Z,925.5
2019-05-28T07:48:37.467Z,925.5
2019-05-28T07:49:38.607Z,925.5
2019-05-28T07:50:39.742Z,925.6
2019-05-28T07:51:40.882Z,925.4
2019-05-28T07:52:42.042Z,925.4
2019-05-28T07:53:43.188Z,925.6
2019-05-28T07:54:44.324Z,925.6
2019-05-28T07:55:45.458Z,925.6
2019-05-28T07:56:46.590Z,925.6
2019-05-28T07:57:47.752Z,925.6
2019-05-28T07:58:48.277Z,925.6
2019-05-28T07:59:49.414Z,925.6
2019-05-28T08:00:50.550Z,925.6
2019-05-28T08:01:51.690Z,925.6
2019-05-28T08:02:52.863Z,925.6
2019-05-28T08:03:54.046Z,925.7
2019-05-28T08:04:55.167Z,925.7
2019-05-28T08:05:56.302Z,925.6
2019-05-28T08:06:57.440Z,925.7
2019-05-28T08:07:58.605Z,925.6
2019-05-28T08:08:59.132Z,925.5
2019-05-28T08:10:00.262Z,925.6
2019-05-28T08:11:01.456Z,925.5
2019-05-28T08:12:02.660Z,925.7
2019-05-28T08:13:03.837Z,925.7
2019-05-28T08:14:04.964Z,925.7
2019-05-28T08:15:06.094Z,925.7
2019-05-28T08:16:17.916Z,925.7
2019-05-28T08:17:08.262Z,925.7
2019-05-28T08:18:09.418Z,925.6
2019-05-28T08:19:09.953Z,925.5
2019-05-28T08:20:11.089Z,925.7
2019-05-28T08:21:12.221Z,924.2
2019-05-28T08:22:13.841Z,925.7
2019-05-28T08:23:14.074Z,925.7
2019-05-28T08:24:15.213Z,925.7
2019-05-28T08:25:27.717Z,924.3
2019-05-28T08:26:17.633Z,925.7
2019-05-28T08:27:18.777Z,925.7
2019-05-28T08:28:20.574Z,925.7
2019-05-28T08:29:21.156Z,925.8
2019-05-28T08:30:22.288Z,925.8
2019-05-28T08:31:23.430Z,925.8
2019-05-28T08:32:24.613Z,925.7
2019-05-28T08:33:25.766Z,925.8
2019-05-28T08:34:26.898Z,925.8
2019-05-28T08:35:28.031Z,925.8
2019-05-28T08:36:29.177Z,925.8
2019-05-28T08:37:30.309Z,925.8
2019-05-28T08:38:31.459Z,925.8
2019-05-28T08:39:33.462Z,925.9
2019-05-28T08:40:32.799Z,925.8
2019-05-28T08:41:33.949Z,925.7
2019-05-28T08:42:35.087Z,925.7
2019-05-28T08:43:36.292Z,925.7
2019-05-28T08:44:37.416Z,925.9
2019-05-28T08:45:41.860Z,925.8
2019-05-28T08:46:39.639Z,924.4
2019-05-28T08:47:40.777Z,925.9
2019-05-28T08:48:41.935Z,925.9
2019-05-28T08:49:42.457Z,925.9
2019-05-28T08:50:43.591Z,925.8
2019-05-28T08:51:44.728Z,925.9
2019-05-28T08:52:45.863Z,926
2019-05-28T08:53:47.025Z,925.9
2019-05-28T08:54:51.109Z,925.9
2019-05-28T08:55:49.356Z,926
2019-05-28T08:56:50.495Z,925.9
2019-05-28T08:57:51.659Z,926
2019-05-28T08:58:52.812Z,925.9
2019-05-28T08:59:53.385Z,925.8
2019-05-28T09:00:54.508Z,926
2019-05-28T09:01:55.640Z,926
2019-05-28T09:02:56.776Z,925.9
2019-05-28T09:03:57.946Z,925.9
2019-05-28T09:04:59.128Z,925.9
2019-05-28T09:06:00.269Z,925.9
2019-05-28T09:07:01.410Z,925.9
2019-05-28T09:08:02.554Z,925.8
2019-05-28T09:09:03.733Z,925.8
2019-05-28T09:10:04.248Z,925.8
2019-05-28T09:11:05.401Z,925.7
2019-05-28T09:12:09.482Z,925.9
2019-05-28T09:13:07.779Z,925.9
2019-05-28T09:14:08.937Z,925.9
2019-05-28T09:15:10.083Z,925.9
2019-05-28T09:16:11.220Z,926
2019-05-28T09:17:12.359Z,926
2019-05-28T09:18:13.496Z,926
2019-05-28T09:19:14.664Z,925
2019-05-28T09:20:15.181Z,925.8
2019-05-28T09:21:16.336Z,926
2019-05-28T09:22:25.400Z,926
2019-05-28T09:23:18.089Z,925.9
2019-05-28T09:24:19.288Z,926
2019-05-28T09:25:20.406Z,926
2019-05-28T09:26:21.535Z,926.1
2019-05-28T09:27:22.673Z,926
2019-05-28T09:28:29.645Z,926
2019-05-28T09:29:24.733Z,926
2019-05-28T09:30:25.258Z,926
2019-05-28T09:31:26.381Z,926.1
2019-05-28T09:32:27.518Z,926.1
2019-05-28T09:33:28.652Z,926.1
2019-05-28T09:34:29.827Z,926.1
2019-05-28T09:35:43.781Z,926.1
2019-05-28T09:36:32.264Z,926.2
2019-05-28T09:37:33.392Z,926.1
2019-05-28T09:38:34.541Z,926.1
2019-05-28T09:39:35.706Z,926.2
2019-05-28T09:40:48.859Z,926.3
2019-05-28T09:41:36.841Z,926.3
2019-05-28T09:42:37.989Z,926.2
2019-05-28T09:43:39.183Z,926.3
2019-05-28T09:44:40.331Z,926.2
2019-05-28T09:45:41.459Z,926.2
2019-05-28T09:46:42.602Z,926.2
2019-05-28T09:47:43.738Z,926.3
2019-05-28T09:48:44.873Z,925.5
2019-05-28T09:49:46.037Z,925.9
2019-05-28T09:50:47.126Z,926.2
2019-05-28T09:51:48.277Z,926.2
2019-05-28T09:52:54.726Z,926.3
2019-05-28T09:53:50.379Z,926.4
2019-05-28T09:54:51.543Z,926.4
2019-05-28T09:55:52.676Z,926.4
2019-05-28T09:56:53.826Z,926.3
2019-05-28T09:57:55.004Z,926.5
2019-05-28T09:58:56.146Z,926.5
2019-05-28T09:59:57.311Z,926.5
2019-05-28T10:01:00.588Z,926.2
2019-05-28T10:01:58.675Z,926.4
2019-05-28T10:02:59.803Z,926.5
2019-05-28T10:04:00.945Z,926.1
2019-05-28T10:05:02.114Z,925.5
2019-05-28T10:06:15.976Z,926.5
2019-05-28T10:07:04.251Z,926.5
2019-05-28T10:08:05.395Z,926.5
2019-05-28T10:09:06.619Z,926.5
2019-05-28T10:10:07.768Z,926.4
2019-05-28T10:11:08.267Z,926.2
2019-05-28T10:12:09.411Z,926.3
2019-05-28T10:13:14.128Z,926.3
2019-05-28T10:14:11.204Z,926.6
2019-05-28T10:15:12.365Z,926.6
2019-05-28T10:16:13.497Z,926.7
2019-05-28T10:17:14.633Z,926.7
2019-05-28T10:18:15.797Z,926.6
2019-05-28T10:19:16.968Z,926.5
2019-05-28T10:20:18.107Z,926.7
2019-05-28T10:21:19.415Z,926.7
2019-05-28T10:22:19.621Z,926.7
2019-05-28T10:23:20.763Z,926.7
2019-05-28T10:24:21.901Z,926.7
2019-05-28T10:25:23.067Z,926.7
2019-05-28T10:26:24.205Z,926.7
2019-05-28T10:27:25.344Z,926.7
2019-05-28T10:28:26.661Z,926.7
2019-05-28T10:29:28.040Z,926.7
2019-05-28T10:30:29.204Z,926.6
2019-05-28T10:31:29.707Z,926.7
2019-05-28T10:32:30.853Z,926.7
2019-05-28T10:33:31.985Z,926.8
2019-05-28T10:34:33.119Z,926.7
2019-05-28T10:35:34.283Z,926.7
2019-05-28T10:36:37.435Z,926.7
2019-05-28T10:37:36.140Z,926.7
2019-05-28T10:38:37.772Z,926.8
2019-05-28T10:39:37.870Z,926.8
2019-05-28T10:40:39.029Z,926.7
2019-05-28T10:41:39.555Z,926.8
2019-05-28T10:42:40.747Z,926.8
2019-05-28T10:43:41.879Z,926.8
2019-05-28T10:44:45.214Z,926.8
2019-05-28T10:45:44.545Z,926.8
2019-05-28T10:46:45.770Z,926.8
2019-05-28T10:47:46.891Z,926.8
2019-05-28T10:48:48.029Z,926.7
2019-05-28T10:49:50.920Z,926.7
2019-05-28T10:50:50.273Z,926.9
2019-05-28T10:51:50.791Z,926.9
2019-05-28T10:52:51.937Z,926.9
2019-05-28T10:53:53.068Z,926.9
2019-05-28T10:54:54.208Z,926.9
2019-05-28T10:55:55.373Z,926.9
2019-05-28T10:56:57.011Z,926.9
2019-05-28T10:57:57.138Z,926.9
2019-05-28T10:58:58.267Z,926.9
2019-05-28T10:59:59.406Z,927
2019-05-28T11:01:00.557Z,927
2019-05-28T11:02:01.088Z,927
2019-05-28T11:03:02.220Z,927
2019-05-28T11:04:03.353Z,927
2019-05-28T11:05:04.510Z,927
2019-05-28T11:06:05.655Z,926.9
2019-05-28T11:07:06.793Z,926.9
2019-05-28T11:08:07.923Z,926.9
2019-05-28T11:09:09.082Z,926.8
2019-05-28T11:10:22.836Z,927
2019-05-28T11:11:11.652Z,927.1
2019-05-28T11:12:12.162Z,927
2019-05-28T11:13:13.304Z,927
2019-05-28T11:14:14.434Z,927
2019-05-28T11:15:15.582Z,927
2019-05-28T11:16:16.738Z,927
2019-05-28T11:17:17.876Z,927
2019-05-28T11:18:19.019Z,927.1
2019-05-28T11:19:20.164Z,927.1
2019-05-28T11:20:21.305Z,927.1
2019-05-28T11:21:22.496Z,927
2019-05-28T11:22:23.013Z,927.2
2019-05-28T11:23:24.148Z,927.1
2019-05-28T11:24:25.280Z,927.2
2019-05-28T11:25:26.420Z,927.2
2019-05-28T11:26:27.573Z,927.3
2019-05-28T11:27:28.713Z,927.3
2019-05-28T11:28:29.851Z,927.3
2019-05-28T11:29:30.995Z,927.3
2019-05-28T11:30:32.123Z,927.4
2019-05-28T11:31:33.278Z,927.3
2019-05-28T11:32:33.802Z,926.5
2019-05-28T11:33:34.935Z,927.3
2019-05-28T11:34:36.095Z,927.3
2019-05-28T11:35:37.216Z,927.4
2019-05-28T11:36:38.415Z,927.3
2019-05-28T11:37:39.550Z,927.2
2019-05-28T11:38:40.741Z,927.2
2019-05-28T11:39:41.861Z,927.5
2019-05-28T11:40:43.001Z,927.4
2019-05-28T11:41:44.171Z,927.4
2019-05-28T11:42:44.715Z,927.4
2019-05-28T11:43:45.848Z,927.5
2019-05-28T11:44:46.982Z,927.5
2019-05-28T11:45:48.127Z,927.5
2019-05-28T11:46:49.291Z,927.3
2019-05-28T11:47:51.278Z,927.6
2019-05-28T11:48:51.549Z,927.7
2019-05-28T11:49:52.684Z,927.7
2019-05-28T11:50:53.819Z,927.7
2019-05-28T11:51:54.980Z,927.7
2019-05-28T11:52:55.502Z,927.7
2019-05-28T11:53:56.645Z,927.7
2019-05-28T11:54:57.775Z,927.8
2019-05-28T11:55:58.909Z,927.8
2019-05-28T11:57:00.074Z,927.8
2019-05-28T11:58:01.210Z,927.9
2019-05-28T11:59:02.354Z,927.3
2019-05-28T12:00:03.476Z,927.9
2019-05-28T12:01:04.619Z,927.9
2019-05-28T12:02:05.981Z,927.8
2019-05-28T12:03:06.531Z,928
2019-05-28T12:04:07.730Z,928.1
2019-05-28T12:05:08.872Z,928
2019-05-28T12:06:10.032Z,928
2019-05-28T12:07:24.946Z,928
2019-05-28T12:08:11.657Z,928
2019-05-28T12:09:12.781Z,928.1
2019-05-28T12:10:13.917Z,928.1
2019-05-28T12:11:15.061Z,928.1
2019-05-28T12:12:16.229Z,928.1
2019-05-28T12:13:16.762Z,927.9
2019-05-28T12:14:17.901Z,928
2019-05-28T12:15:19.044Z,928.2
2019-05-28T12:16:20.180Z,927.9
2019-05-28T12:17:40.405Z,927.9
2019-05-28T12:18:22.646Z,927.3
2019-05-28T12:19:23.773Z,928.2
2019-05-28T12:20:24.913Z,928.2
2019-05-28T12:21:26.058Z,928.2
2019-05-28T12:22:27.211Z,928.3
2019-05-28T12:23:27.878Z,928.3
2019-05-28T12:24:29.087Z,928.2
2019-05-28T12:25:30.222Z,928.3
2019-05-28T12:26:31.358Z,928.3
2019-05-28T12:27:32.501Z,928.2
2019-05-28T12:28:37.888Z,928.3
2019-05-28T12:29:48.985Z,928.3
2019-05-28T12:30:34.922Z,928.3
2019-05-28T12:31:36.055Z,928.2
2019-05-28T12:32:37.213Z,928.3
2019-05-28T12:33:37.765Z,928.3
2019-05-28T12:34:38.917Z,928.3
2019-05-28T12:35:42.770Z,928.3
2019-05-28T12:36:41.144Z,928.3
2019-05-28T12:37:48.524Z,928.4
2019-05-28T12:38:42.894Z,928.4
2019-05-28T12:39:44.036Z,928.3
2019-05-28T12:40:48.104Z,928.3
2019-05-28T12:42:00.961Z,928.4
2019-05-28T12:42:47.814Z,928.3
2019-05-28T12:43:48.333Z,928.4
2019-05-28T12:45:05.486Z,928.4
2019-05-28T12:45:50.257Z,928.4
2019-05-28T12:46:51.395Z,928.4
2019-05-28T12:48:07.775Z,928.3
2019-05-28T12:48:53.801Z,928.5
2019-05-28T12:49:54.937Z,928.5
2019-05-28T12:50:56.074Z,928.6
2019-05-28T12:51:57.211Z,928.5
2019-05-28T12:52:58.361Z,928.5
2019-05-28T12:55:54.883Z,928.5
2019-05-28T12:56:55.398Z,928.6
2019-05-28T12:57:56.551Z,928.6
2019-05-28T12:58:57.699Z,928.6
2019-05-28T12:59:58.869Z,928.6
2019-05-28T13:01:00.025Z,928.6
2019-05-28T13:02:01.148Z,928.6
2019-05-28T13:03:02.324Z,928.6
2019-05-28T13:04:03.674Z,928.6
2019-05-28T13:05:04.906Z,928.6
2019-05-28T13:06:06.057Z,928.5
2019-05-28T13:07:06.572Z,928.6
2019-05-28T13:08:09.979Z,928.6
2019-05-28T13:09:08.681Z,928.6
2019-05-28T13:10:09.819Z,928.6
2019-05-28T13:11:10.946Z,928.6
2019-05-28T13:12:12.089Z,928.7
2019-05-28T13:13:13.258Z,928.6